createdAt,value
2022-12-13T00:01:21.869Z,100678.91
2022-12-13T00:03:49.667Z,100674.38
2022-12-13T00:06:17.334Z,100676.44
2022-12-13T00:08:46.569Z,100676.44
2022-12-13T00:11:15.558Z,100664.63
2022-12-13T00:13:44.437Z,100666.75
2022-12-13T00:16:14.930Z,100676.28
2022-12-13T00:18:42.902Z,100670.25
2022-12-13T00:21:14.933Z,100658.88
2022-12-13T00:23:42.994Z,100664.28
2022-12-13T00:26:14.763Z,100661.97
2022-12-13T00:28:43.227Z,100657.84
2022-12-13T00:31:51.236Z,100658.22
2022-12-13T00:33:58.897Z,100661.31
2022-12-13T00:36:26.616Z,100641.69
2022-12-13T00:39:01.459Z,100651.81
2022-12-13T00:41:32.095Z,100645.41
2022-12-13T00:44:00.422Z,100642.50
2022-12-13T00:46:29.127Z,100628.00
2022-12-13T00:48:59.653Z,100633.81
2022-12-13T00:51:27.849Z,100628.25
2022-12-13T00:53:55.617Z,100629.22
2022-12-13T00:56:25.562Z,100627.16
2022-12-13T00:58:55.355Z,100622.59
2022-12-13T01:01:25.437Z,100629.63
2022-12-13T01:03:54.798Z,100621.59
2022-12-13T01:06:26.538Z,100632.13
2022-12-13T01:08:54.280Z,100638.34
2022-12-13T01:11:22.221Z,100642.31
2022-12-13T01:13:49.876Z,100641.19
2022-12-13T01:16:19.305Z,100636.44
2022-12-13T01:18:47.116Z,100639.53
2022-12-13T01:21:17.272Z,100638.50
2022-12-13T01:23:45.948Z,100629.78
2022-12-13T01:26:15.715Z,100638.75
2022-12-13T01:28:44.084Z,100627.09
2022-12-13T01:31:15.254Z,100628.75
2022-12-13T01:33:44.563Z,100635.16
2022-12-13T01:36:15.821Z,100634.16
2022-12-13T01:41:16.839Z,100637.28
2022-12-13T01:43:59.925Z,100639.97
2022-12-13T01:46:27.837Z,100637.69
2022-12-13T01:49:02.262Z,100636.03
2022-12-13T01:51:35.335Z,100635.41
2022-12-13T01:54:04.511Z,100632.31
2022-12-13T01:56:37.907Z,100637.25
2022-12-13T01:59:08.899Z,100640.81
2022-12-13T02:01:37.198Z,100642.50
2022-12-13T02:04:07.168Z,100628.78
2022-12-13T02:06:36.494Z,100632.09
2022-12-13T02:09:06.511Z,100632.91
2022-12-13T02:11:35.023Z,100624.22
2022-12-13T02:14:02.661Z,100631.50
2022-12-13T02:16:47.451Z,100628.81
2022-12-13T02:22:27.985Z,100627.53
2022-12-13T02:25:15.404Z,100630.25
2022-12-13T02:28:00.810Z,100630.25
2022-12-13T02:30:38.577Z,100613.53
2022-12-13T02:33:33.105Z,100622.41
2022-12-13T02:36:12.512Z,100618.28
2022-12-13T02:38:50.727Z,100615.38
2022-12-13T02:41:23.524Z,100614.56
2022-12-13T02:44:01.223Z,100614.78
2022-12-13T02:46:34.230Z,100609.97
2022-12-13T02:49:04.567Z,100617.88
2022-12-13T02:51:33.482Z,100607.09
2022-12-13T02:54:01.203Z,100608.94
2022-12-13T02:56:29.039Z,100599.63
2022-12-13T02:58:57.711Z,100605.84
2022-12-13T03:01:49.613Z,100600.88
2022-12-13T03:04:28.262Z,100605.84
2022-12-13T03:07:06.526Z,100610.59
2022-12-13T03:09:52.387Z,100602.13
2022-12-13T03:12:44.260Z,100608.28
2022-12-13T03:15:18.171Z,100596.28
2022-12-13T03:17:52.327Z,100599.00
2022-12-13T03:20:25.299Z,100606.06
2022-12-13T03:22:53.233Z,100603.78
2022-12-13T03:25:31.980Z,100601.72
2022-12-13T03:28:01.087Z,100603.59
2022-12-13T03:30:30.411Z,100610.00
2022-12-13T03:33:00.027Z,100599.25
2022-12-13T03:35:34.930Z,100602.56
2022-12-13T03:38:22.058Z,100604.84
2022-12-13T03:40:53.426Z,100587.25
2022-12-13T03:43:21.609Z,100595.75
2022-12-13T03:45:50.819Z,100589.97
2022-12-13T03:48:22.033Z,100588.69
2022-12-13T03:50:51.649Z,100589.50
2022-12-13T03:53:23.043Z,100585.56
2022-12-13T03:56:01.528Z,100583.28
2022-12-13T03:58:36.270Z,100581.44
2022-12-13T04:01:05.864Z,100576.25
2022-12-13T04:03:35.102Z,100574.97
2022-12-13T04:06:02.812Z,100571.09
2022-12-13T04:08:30.655Z,100572.53
2022-12-13T04:10:58.339Z,100567.53
2022-12-13T04:13:34.024Z,100572.97
2022-12-13T04:16:02.397Z,100574.81
2022-12-13T04:18:30.374Z,100574.81
2022-12-13T04:20:59.323Z,100570.28
2022-12-13T04:23:27.031Z,100568.59
2022-12-13T04:25:54.844Z,100580.59
2022-12-13T04:28:23.281Z,100573.34
2022-12-13T04:30:52.769Z,100579.34
2022-12-13T04:33:22.109Z,100581.84
2022-12-13T04:35:50.567Z,100578.94
2022-12-13T04:38:20.497Z,100574.34
2022-12-13T04:40:48.204Z,100578.09
2022-12-13T04:43:15.911Z,100576.88
2022-12-13T04:45:43.592Z,100581.44
2022-12-13T04:48:11.393Z,100585.19
2022-12-13T04:50:39.009Z,100583.94
2022-12-13T04:53:06.709Z,100588.88
2022-12-13T04:55:37.811Z,100589.28
2022-12-13T04:58:05.457Z,100588.28
2022-12-13T05:00:33.083Z,100585.19
2022-12-13T05:03:00.908Z,100588.69
2022-12-13T05:05:28.508Z,100584.94
2022-12-13T05:07:56.400Z,100595.34
2022-12-13T05:10:33.943Z,100587.25
2022-12-13T05:13:07.501Z,100587.25
2022-12-13T05:15:35.308Z,100584.34
2022-12-13T05:18:10.024Z,100591.19
2022-12-13T05:20:38.976Z,100578.53
2022-12-13T05:23:06.620Z,100586.22
2022-12-13T05:25:34.378Z,100587.88
2022-12-13T05:28:08.713Z,100582.31
2022-12-13T05:30:40.359Z,100589.53
2022-12-13T05:33:08.550Z,100593.91
2022-12-13T05:35:36.885Z,100591.63
2022-12-13T05:38:04.992Z,100594.31
2022-12-13T05:40:33.668Z,100586.59
2022-12-13T05:43:02.090Z,100586.84
2022-12-13T05:45:30.406Z,100592.22
2022-12-13T05:47:59.835Z,100582.25
2022-12-13T05:50:27.611Z,100577.50
2022-12-13T05:52:55.242Z,100577.50
2022-12-13T05:55:22.948Z,100583.09
2022-12-13T05:57:51.219Z,100584.13
2022-12-13T06:00:30.217Z,100581.63
2022-12-13T06:03:01.913Z,100575.63
2022-12-13T06:05:29.854Z,100580.84
2022-12-13T06:07:58.943Z,100582.03
2022-12-13T06:10:34.200Z,100592.03
2022-12-13T06:13:21.015Z,100586.00
2022-12-13T06:15:50.024Z,100592.44
2022-12-13T06:18:18.993Z,100595.53
2022-12-13T06:20:47.219Z,100597.59
2022-12-13T06:23:14.904Z,100598.59
2022-12-13T06:25:45.366Z,100594.47
2022-12-13T06:28:16.492Z,100595.28
2022-12-13T06:30:44.339Z,100596.53
2022-12-13T06:33:13.359Z,100600.50
2022-12-13T06:35:42.633Z,100599.91
2022-12-13T06:38:11.928Z,100605.28
2022-12-13T06:40:39.942Z,100623.13
2022-12-13T06:43:07.664Z,100609.81
2022-12-13T06:45:35.354Z,100603.78
2022-12-13T06:48:02.997Z,100615.19
2022-12-13T06:50:30.617Z,100613.97
2022-12-13T06:52:59.659Z,100617.28
2022-12-13T06:55:27.307Z,100621.16
2022-12-13T06:57:55.020Z,100631.28
2022-12-13T07:00:24.936Z,100620.94
2022-12-13T07:03:03.459Z,100618.31
2022-12-13T07:05:31.151Z,100628.63
2022-12-13T07:08:00.225Z,100621.59
2022-12-13T07:10:28.205Z,100637.72
2022-12-13T07:12:55.856Z,100637.94
2022-12-13T07:15:23.524Z,100636.69
2022-12-13T07:17:51.661Z,100637.28
2022-12-13T07:20:20.887Z,100635.22
2022-12-13T07:22:58.289Z,100635.84
2022-12-13T07:25:29.437Z,100646.00
2022-12-13T07:28:02.015Z,100649.78
2022-12-13T07:30:30.852Z,100649.34
2022-12-13T07:32:58.529Z,100651.00
2022-12-13T07:35:26.201Z,100644.16
2022-12-13T07:37:53.824Z,100647.47
2022-12-13T07:40:21.516Z,100650.16
2022-12-13T07:42:52.123Z,100654.28
2022-12-13T07:45:20.151Z,100656.56
2022-12-13T07:47:47.924Z,100650.16
2022-12-13T07:50:25.218Z,100652.84
2022-12-13T07:52:53.809Z,100657.16
2022-12-13T07:55:33.157Z,100651.78
2022-12-13T07:58:11.139Z,100650.16
2022-12-13T08:00:39.779Z,100651.59
2022-12-13T08:03:07.557Z,100661.97
2022-12-13T08:05:38.507Z,100656.19
2022-12-13T08:08:09.115Z,100661.94
2022-12-13T08:10:37.111Z,100658.06
2022-12-13T08:13:05.541Z,100660.28
2022-12-13T08:15:34.758Z,100664.41
2022-12-13T08:18:03.897Z,100667.56
2022-12-13T08:20:31.606Z,100666.28
2022-12-13T08:23:02.213Z,100672.09
2022-12-13T08:25:31.521Z,100668.13
2022-12-13T08:28:02.078Z,100668.97
2022-12-13T08:30:30.872Z,100670.78
2022-12-13T08:33:04.628Z,100675.81
2022-12-13T08:35:34.613Z,100668.09
2022-12-13T08:38:02.639Z,100675.13
2022-12-13T08:40:30.348Z,100678.63
2022-12-13T08:42:58.055Z,100686.56
2022-12-13T08:45:26.901Z,100693.19
2022-12-13T08:47:54.933Z,100691.75
2022-12-13T08:50:23.948Z,100685.34
2022-12-13T08:52:52.689Z,100689.88
2022-12-13T08:55:25.076Z,100691.72
2022-12-13T08:58:01.282Z,100691.75
2022-12-13T09:00:29.315Z,100693.69
2022-12-13T09:03:04.295Z,100688.41
2022-12-13T09:05:35.119Z,100696.91
2022-12-13T09:08:22.811Z,100693.78
2022-12-13T09:10:59.286Z,100693.22
2022-12-13T09:13:32.360Z,100690.06
2022-12-13T09:16:04.796Z,100697.34
2022-12-13T09:18:36.401Z,100695.72
2022-12-13T09:21:11.275Z,100697.16
2022-12-13T09:23:45.975Z,100686.38
2022-12-13T09:26:16.073Z,100701.59
2022-12-13T09:28:44.147Z,100697.63
2022-12-13T09:31:14.268Z,100696.16
2022-12-13T09:33:42.554Z,100698.84
2022-12-13T09:36:13.654Z,100696.78
2022-12-13T09:38:41.436Z,100701.94
2022-12-13T09:41:21.127Z,100702.97
2022-12-13T09:44:01.020Z,100699.66
2022-12-13T09:46:34.702Z,100692.03
2022-12-13T09:49:15.955Z,100695.34
2022-12-13T09:52:11.745Z,100694.13
2022-12-13T09:54:48.618Z,100687.94
2022-12-13T09:57:32.283Z,100688.16
2022-12-13T10:00:03.236Z,100687.97
2022-12-13T10:02:33.347Z,100689.41
2022-12-13T10:05:23.294Z,100690.25
2022-12-13T10:07:58.182Z,100690.44
2022-12-13T10:10:26.465Z,100690.03
2022-12-13T10:13:02.059Z,100693.53
2022-12-13T10:15:31.472Z,100691.06
2022-12-13T10:18:00.675Z,100687.31
2022-12-13T10:20:31.075Z,100691.66
2022-12-13T10:25:51.698Z,100688.97
2022-12-13T10:28:25.320Z,100683.53
2022-12-13T10:30:53.678Z,100680.00
2022-12-13T10:33:25.210Z,100688.97
2022-12-13T10:36:08.512Z,100686.28
2022-12-13T10:38:39.903Z,100680.91
2022-12-13T10:41:31.259Z,100672.00
2022-12-13T10:44:10.868Z,100675.50
2022-12-13T10:46:39.019Z,100681.69
2022-12-13T10:49:17.544Z,100675.28
2022-12-13T10:51:46.072Z,100673.84
2022-12-13T10:54:20.504Z,100675.28
2022-12-13T10:56:51.451Z,100668.44
2022-12-13T10:59:34.146Z,100670.13
2022-12-13T11:02:03.755Z,100673.84
2022-12-13T11:04:33.382Z,100671.19
2022-12-13T11:07:02.930Z,100679.25
2022-12-13T11:09:38.409Z,100669.94
2022-12-13T11:12:15.151Z,100680.94
2022-12-13T11:14:55.816Z,100672.22
2022-12-13T11:17:26.969Z,100663.91
2022-12-13T11:19:57.659Z,100672.59
2022-12-13T11:22:28.035Z,100678.38
2022-12-13T11:25:01.312Z,100669.72
2022-12-13T11:27:48.965Z,100673.47
2022-12-13T11:30:22.890Z,100671.19
2022-12-13T11:33:06.108Z,100673.47
2022-12-13T11:35:47.578Z,100681.72
2022-12-13T11:38:26.361Z,100672.84
2022-12-13T11:41:00.182Z,100666.59
2022-12-13T11:43:34.460Z,100656.84
2022-12-13T11:46:14.792Z,100661.19
2022-12-13T11:48:47.316Z,100663.47
2022-12-13T11:51:20.690Z,100667.59
2022-12-13T11:53:56.204Z,100660.41
2022-12-13T11:56:28.514Z,100665.78
2022-12-13T11:59:10.114Z,100663.50
2022-12-13T12:01:47.357Z,100662.88
2022-12-13T12:04:27.217Z,100670.38
2022-12-13T12:07:17.924Z,100673.88
2022-12-13T12:09:52.535Z,100670.59
2022-12-13T12:12:27.666Z,100672.03
2022-12-13T12:15:05.777Z,100671.59
2022-12-13T12:17:43.272Z,100671.59
2022-12-13T12:20:14.158Z,100670.38
2022-12-13T12:23:00.276Z,100667.06
2022-12-13T12:25:37.124Z,100664.16
2022-12-13T12:28:24.551Z,100661.91
2022-12-13T12:31:03.533Z,100672.06
2022-12-13T12:33:41.972Z,100673.31
2022-12-13T12:36:32.215Z,100671.66
2022-12-13T12:39:19.934Z,100673.50
2022-12-13T12:41:55.864Z,100671.00
2022-12-13T12:44:33.971Z,100663.13
2022-12-13T12:47:37.415Z,100667.69
2022-12-13T12:50:28.647Z,100668.31
2022-12-13T12:53:03.709Z,100660.03
2022-12-13T12:55:49.226Z,100665.63
2022-12-13T12:58:27.914Z,100666.91
2022-12-13T13:01:11.084Z,100665.63
2022-12-13T13:03:41.872Z,100670.00
2022-12-13T13:06:15.076Z,100674.56
2022-12-13T13:08:54.825Z,100679.09
2022-12-13T13:11:25.960Z,100678.09
2022-12-13T13:14:06.976Z,100679.72
2022-12-13T13:16:38.424Z,100680.56
2022-12-13T13:19:07.343Z,100689.88
2022-12-13T13:21:47.150Z,100687.59
2022-12-13T13:24:20.974Z,100680.13
2022-12-13T13:26:50.797Z,100686.56
2022-12-13T13:29:32.292Z,100685.94
2022-12-13T13:32:05.039Z,100677.44
2022-12-13T13:34:34.831Z,100686.16
2022-12-13T13:37:03.254Z,100682.22
2022-12-13T13:39:56.562Z,100675.97
2022-12-13T13:42:25.167Z,100677.41
2022-12-13T13:45:18.599Z,100671.63
2022-12-13T13:47:55.715Z,100676.59
2022-12-13T13:50:57.291Z,100683.06
2022-12-13T13:54:01.924Z,100684.72
2022-12-13T13:56:44.939Z,100680.53
2022-12-13T13:59:47.179Z,100684.22
2022-12-13T14:02:44.590Z,100687.94
2022-12-13T14:05:59.175Z,100677.00
2022-12-13T14:08:37.320Z,100682.81
2022-12-13T14:11:25.783Z,100676.19
2022-12-13T14:14:29.423Z,100672.22
2022-12-13T14:17:47.182Z,100668.72
2022-12-13T14:20:44.976Z,100671.63
2022-12-13T14:23:23.532Z,100671.00
2022-12-13T14:26:10.693Z,100671.66
2022-12-13T14:28:48.010Z,100671.66
2022-12-13T14:31:22.086Z,100667.03
2022-12-13T14:33:52.186Z,100671.63
2022-12-13T14:36:32.092Z,100673.47
2022-12-13T14:39:05.092Z,100663.53
2022-12-13T14:41:32.902Z,100665.78
2022-12-13T14:44:15.626Z,100663.56
2022-12-13T14:46:51.269Z,100667.91
2022-12-13T14:49:20.471Z,100675.78
2022-12-13T14:51:53.647Z,100679.94
2022-12-13T14:54:26.067Z,100671.00
2022-12-13T14:57:01.893Z,100675.16
2022-12-13T14:59:29.790Z,100672.44
2022-12-13T15:02:00.752Z,100678.16
2022-12-13T15:04:31.291Z,100667.00
2022-12-13T15:07:06.377Z,100671.19
2022-12-13T15:09:37.116Z,100667.22
2022-12-13T15:12:14.916Z,100668.69
2022-12-13T15:14:57.903Z,100670.34
2022-12-13T15:17:29.509Z,100667.03
2022-12-13T15:19:57.282Z,100677.56
2022-12-13T15:22:29.470Z,100669.06
2022-12-13T15:24:58.363Z,100667.84
2022-12-13T15:27:26.555Z,100668.66
2022-12-13T15:29:54.968Z,100664.53
2022-12-13T15:32:24.047Z,100672.59
2022-12-13T15:34:52.657Z,100679.00
2022-12-13T15:37:29.806Z,100682.31
2022-12-13T15:40:01.139Z,100676.94
2022-12-13T15:42:33.000Z,100684.19
2022-12-13T15:45:03.674Z,100681.47
2022-12-13T15:47:31.909Z,100680.25
2022-12-13T15:50:01.611Z,100676.72
2022-12-13T15:52:34.651Z,100675.50
2022-12-13T15:55:28.593Z,100678.19
2022-12-13T15:57:58.757Z,100677.56
2022-12-13T16:00:30.336Z,100673.84
2022-12-13T16:03:10.066Z,100671.81
2022-12-13T16:05:40.410Z,100681.47
2022-12-13T16:08:24.623Z,100674.44
2022-12-13T16:10:54.017Z,100667.19
2022-12-13T16:13:26.845Z,100673.63
2022-12-13T16:16:00.409Z,100666.31
2022-12-13T16:18:45.777Z,100664.91
2022-12-13T16:21:14.474Z,100659.75
2022-12-13T16:23:48.810Z,100671.97
2022-12-13T16:26:23.365Z,100667.44
2022-12-13T16:28:51.376Z,100664.91
2022-12-13T16:31:22.185Z,100664.91
2022-12-13T16:33:50.348Z,100658.66
2022-12-13T16:36:18.919Z,100651.84
2022-12-13T16:38:48.107Z,100647.47
2022-12-13T16:41:16.381Z,100654.72
2022-12-13T16:43:52.754Z,100643.13
2022-12-13T16:47:14.383Z,100647.84
2022-12-13T16:49:21.516Z,100645.53
2022-12-13T16:51:50.052Z,100646.56
2022-12-13T16:54:20.877Z,100643.44
2022-12-13T16:56:49.358Z,100639.28
2022-12-13T16:59:18.956Z,100639.09
2022-12-13T17:01:47.362Z,100637.84
2022-12-13T17:04:20.513Z,100649.84
2022-12-13T17:06:50.066Z,100645.69
2022-12-13T17:09:19.869Z,100641.53
2022-12-13T17:11:47.715Z,100638.59
2022-12-13T17:14:15.774Z,100636.50
2022-12-13T17:16:43.756Z,100636.28
2022-12-13T17:19:12.022Z,100634.63
2022-12-13T17:21:39.890Z,100639.59
2022-12-13T17:24:08.375Z,100634.34
2022-12-13T17:26:37.880Z,100633.50
2022-12-13T17:29:05.948Z,100637.03
2022-12-13T17:31:35.960Z,100649.63
2022-12-13T17:34:04.612Z,100646.81
2022-12-13T17:36:32.816Z,100639.16
2022-12-13T17:39:00.783Z,100633.72
2022-12-13T17:41:28.740Z,100632.06
2022-12-13T17:44:01.334Z,100634.53
2022-12-13T17:46:29.276Z,100631.78
2022-12-13T17:48:57.412Z,100636.53
2022-12-13T17:51:25.336Z,100635.25
2022-12-13T17:53:53.172Z,100621.38
2022-12-13T17:56:21.161Z,100625.66
2022-12-13T17:58:49.441Z,100627.09
2022-12-13T18:01:20.704Z,100625.44
2022-12-13T18:03:49.787Z,100627.09
2022-12-13T18:06:17.751Z,100627.69
2022-12-13T18:08:46.700Z,100624.56
2022-12-13T18:11:33.703Z,100621.00
2022-12-13T18:14:02.257Z,100622.47
2022-12-13T18:16:37.080Z,100618.84
2022-12-13T18:19:07.332Z,100625.88
2022-12-13T18:21:36.775Z,100621.53
2022-12-13T18:24:05.897Z,100621.72
2022-12-13T18:26:34.485Z,100620.88
2022-12-13T18:29:02.577Z,100622.53
2022-12-13T18:31:32.159Z,100617.81
2022-12-13T18:34:00.419Z,100614.06
2022-12-13T18:36:28.399Z,100615.22
2022-12-13T18:38:56.871Z,100615.16
2022-12-13T18:41:28.052Z,100607.94
2022-12-13T18:43:59.217Z,100612.47
2022-12-13T18:46:28.559Z,100610.16
2022-12-13T18:48:58.520Z,100614.91
2022-12-13T18:51:27.063Z,100613.81
2022-12-13T18:53:55.967Z,100608.72
2022-12-13T18:56:24.488Z,100616.31
2022-12-13T18:58:53.331Z,100618.16
2022-12-13T19:01:22.789Z,100617.34
2022-12-13T19:03:50.864Z,100621.81
2022-12-13T19:06:22.760Z,100615.03
2022-12-13T19:08:51.391Z,100617.13
2022-12-13T19:11:19.840Z,100618.91
2022-12-13T19:13:48.131Z,100614.72
2022-12-13T19:16:18.309Z,100622.47
2022-12-13T19:18:46.418Z,100621.81
2022-12-13T19:21:16.854Z,100628.25
2022-12-13T19:23:51.310Z,100620.66
2022-12-13T19:26:23.630Z,100622.38
2022-12-13T19:28:51.588Z,100614.25
2022-12-13T19:31:19.627Z,100621.84
2022-12-13T19:33:48.958Z,100630.34
2022-12-13T19:36:17.140Z,100615.97
2022-12-13T19:38:46.348Z,100623.63
2022-12-13T19:41:15.934Z,100617.63
2022-12-13T19:43:49.139Z,100618.66
2022-12-13T19:46:20.853Z,100616.78
2022-12-13T19:48:48.632Z,100630.53
2022-12-13T19:51:16.319Z,100617.84
2022-12-13T19:53:44.413Z,100620.09
2022-12-13T19:56:17.414Z,100618.91
2022-12-13T19:58:46.278Z,100625.50
2022-12-13T20:01:14.423Z,100612.66
2022-12-13T20:03:45.145Z,100615.97
2022-12-13T20:06:15.926Z,100614.22
2022-12-13T20:08:43.878Z,100625.66
2022-12-13T20:11:15.300Z,100620.78
2022-12-13T20:13:42.986Z,100629.13
2022-12-13T20:16:16.823Z,100634.28
2022-12-13T20:18:44.791Z,100619.88
2022-12-13T20:21:14.642Z,100618.13
2022-12-13T20:23:48.998Z,100616.28
2022-12-13T20:26:21.567Z,100618.97
2022-12-13T20:28:49.942Z,100614.16
2022-12-13T20:31:19.503Z,100609.53
2022-12-13T20:33:48.015Z,100614.72
2022-12-13T20:36:26.211Z,100614.25
2022-12-13T20:38:55.645Z,100608.63
2022-12-13T20:41:26.267Z,100609.06
2022-12-13T20:43:54.551Z,100602.97
2022-12-13T20:46:23.361Z,100608.97
2022-12-13T20:48:52.032Z,100601.84
2022-12-13T20:51:21.741Z,100600.50
2022-12-13T20:53:50.670Z,100599.16
2022-12-13T20:56:20.803Z,100595.94
2022-12-13T20:58:50.324Z,100598.53
2022-12-13T21:01:20.468Z,100603.06
2022-12-13T21:03:49.389Z,100592.47
2022-12-13T21:06:17.056Z,100587.91
2022-12-13T21:08:54.332Z,100590.03
2022-12-13T21:11:26.515Z,100589.47
2022-12-13T21:14:03.744Z,100585.97
2022-12-13T21:16:38.257Z,100588.19
2022-12-13T21:19:07.350Z,100579.03
2022-12-13T21:21:35.228Z,100576.44
2022-12-13T21:24:06.168Z,100568.69
2022-12-13T21:26:36.043Z,100568.41
2022-12-13T21:29:06.668Z,100567.88
2022-12-13T21:31:35.884Z,100567.56
2022-12-13T21:34:05.115Z,100566.09
2022-12-13T21:36:34.449Z,100560.53
2022-12-13T21:39:04.519Z,100559.63
2022-12-13T21:41:32.400Z,100561.16
2022-12-13T21:44:00.600Z,100550.81
2022-12-13T21:46:55.224Z,100555.34
2022-12-13T21:49:18.479Z,100560.31
2022-12-13T21:51:48.181Z,100559.06
2022-12-13T21:54:16.748Z,100552.59
2022-12-13T21:57:01.993Z,100552.59
2022-12-13T21:59:30.765Z,100550.75
2022-12-13T22:02:15.487Z,100547.59
2022-12-13T22:04:45.746Z,100545.41
2022-12-13T22:07:15.518Z,100546.59
2022-12-13T22:09:43.312Z,100538.81
2022-12-13T22:12:17.925Z,100535.31
2022-12-13T22:14:45.803Z,100542.13
2022-12-13T22:17:15.358Z,100529.47
2022-12-13T22:19:42.991Z,100528.47
2022-12-13T22:22:16.373Z,100528.81
2022-12-13T22:24:48.464Z,100521.28
2022-12-13T22:27:23.488Z,100525.16
2022-12-13T22:29:51.349Z,100518.13
2022-12-13T22:32:20.801Z,100517.47
2022-12-13T22:34:48.593Z,100511.78
2022-12-13T22:37:16.547Z,100512.91
2022-12-13T22:39:44.201Z,100513.91
2022-12-13T22:42:12.239Z,100505.38
2022-12-13T22:44:39.975Z,100505.16
2022-12-13T22:47:07.715Z,100503.69
2022-12-13T22:49:36.778Z,100492.81
2022-12-13T22:52:04.559Z,100496.41
2022-12-13T22:54:32.212Z,100486.56
2022-12-13T22:56:59.910Z,100481.38
2022-12-13T22:59:27.636Z,100487.22
2022-12-13T23:02:01.952Z,100482.03
2022-12-13T23:04:30.560Z,100477.63
2022-12-13T23:06:59.617Z,100475.59
2022-12-13T23:09:27.373Z,100473.91
2022-12-13T23:12:27.178Z,100464.41
2022-12-13T23:14:54.852Z,100462.47
2022-12-13T23:17:22.486Z,100462.00
2022-12-13T23:19:53.654Z,100460.50
2022-12-13T23:22:24.551Z,100465.38
2022-12-13T23:24:52.704Z,100470.63
2022-12-13T23:27:22.038Z,100466.44
2022-12-13T23:29:49.764Z,100455.09
2022-12-13T23:32:17.970Z,100452.78
2022-12-13T23:34:45.732Z,100452.50
2022-12-13T23:37:13.596Z,100451.00
2022-12-13T23:39:42.675Z,100445.88
2022-12-13T23:42:10.377Z,100445.94
2022-12-13T23:44:37.970Z,100440.66
2022-12-13T23:47:05.668Z,100446.13
2022-12-13T23:49:33.366Z,100440.66
2022-12-13T23:52:01.036Z,100440.81
2022-12-13T23:54:28.692Z,100436.81
2022-12-13T23:56:57.713Z,100438.72
2022-12-13T23:59:26.051Z,100439.75
